Time;durP1;ratioP1;P1;durP2;ratioP2;P2;SDS_P1;SDS_P2;PMS_P1;PMS_P2;Temp;Humidity;BMP_temperature;BMP_pressure;BME280_temperature;BME280_humidity;BME280_pressure;Samples;Min_cycle;Max_cycle;Signal;HPM_P1;HPM_P2
2023/10/01 00:02:02;;;;;;;;;;;;;;;17.95;100.00;100365.81;4896640;29;20432;-75
2023/10/01 00:04:27;;;;;;;;;;;;;;;17.91;100.00;100367.97;4880392;29;19919;-74
2023/10/01 00:06:53;;;;;;;;;;;;;;;17.75;100.00;100368.00;4893353;29;19928;-76
2023/10/01 00:09:19;;;;;;;;;;;;;;;17.67;100.00;100369.88;4897174;29;19926;-76
2023/10/01 00:11:45;;;;;;;;;;;;;;;17.59;100.00;100368.00;4896426;29;19923;-76
2023/10/01 00:14:11;;;;;;;;;;;;;;;17.55;100.00;100372.81;4896962;29;19928;-76
2023/10/01 00:16:37;;;;;;;;;;;;;;;17.56;100.00;100363.81;4897081;29;19920;-77
2023/10/01 00:19:05;;;;;;;;;;;;;;;17.59;100.00;100374.16;4896452;29;19930;-77
2023/10/01 00:21:31;;;;;;;;;;;;;;;17.48;100.00;100374.50;4896748;29;19935;-74
2023/10/01 00:23:57;;;;;;;;;;;;;;;17.44;100.00;100375.81;4896647;29;19919;-76
2023/10/01 00:26:22;;;;;;;;;;;;;;;17.34;100.00;100366.31;4892128;29;19923;-76
2023/10/01 00:28:50;;;;;;;;;;;;;;;17.25;100.00;100370.84;4896633;29;20388;-76
2023/10/01 00:31:17;;;;;;;;;;;;;;;17.22;100.00;100371.16;4896517;29;19923;-77
2023/10/01 00:33:43;;;;;;;;;;;;;;;17.25;100.00;100370.84;4896642;29;19924;-75
2023/10/01 00:36:08;;;;;;;;;;;;;;;17.26;100.00;100374.34;4896526;29;19970;-74
2023/10/01 00:38:34;;;;;;;;;;;;;;;17.18;100.00;100385.84;4896344;29;19931;-75
2023/10/01 00:40:59;;;;;;;;;;;;;;;17.08;100.00;100379.81;4879026;29;20385;-74
2023/10/01 00:43:25;;;;;;;;;;;;;;;17.16;100.00;100382.50;4859930;29;20459;-75
2023/10/01 00:45:52;;;;;;;;;;;;;;;17.16;100.00;100377.16;4875292;29;19928;-75
2023/10/01 00:48:18;;;;;;;;;;;;;;;17.20;100.00;100389.16;4896199;29;20026;-75
2023/10/01 00:50:44;;;;;;;;;;;;;;;17.23;100.00;100383.50;4895925;29;19935;-75
2023/10/01 00:53:10;;;;;;;;;;;;;;;17.21;100.00;100385.50;4895992;29;19950;-75
2023/10/01 00:55:37;;;;;;;;;;;;;;;17.24;100.00;100390.50;4895991;29;19959;-76
2023/10/01 00:58:03;;;;;;;;;;;;;;;17.25;100.00;100392.19;4893926;29;19951;-74
2023/10/01 01:00:28;;;;;;;;;;;;;;;17.29;100.00;100393.50;4893692;29;20384;-75
2023/10/01 01:03:07;;;;;;;;;;;;;;;17.19;100.00;100400.84;4893597;29;20273;-75
2023/10/01 01:05:49;;;;;;;;;;;;;;;17.07;100.00;100391.50;4879081;29;20015;-75
2023/10/01 01:08:28;;;;;;;;;;;;;;;17.11;100.00;100384.81;4875288;29;19930;-75
2023/10/01 01:10:53;;;;;;;;;;;;;;;17.10;100.00;100388.47;4887213;29;19980;-74
2023/10/01 01:13:19;;;;;;;;;;;;;;;17.00;100.00;100387.81;4878432;29;19923;-75
2023/10/01 01:15:45;;;;;;;;;;;;;;;16.89;100.00;100390.78;4895814;29;19989;-75
2023/10/01 01:18:13;;;;;;;;;;;;;;;16.77;100.00;100387.59;4896058;29;20355;-76
2023/10/01 01:20:45;;;;;;;;;;;;;;;16.79;100.00;100381.06;4896097;29;20018;-76
2023/10/01 01:23:17;;;;;;;;;;;;;;;16.83;100.00;100386.09;4875013;29;19928;-76
2023/10/01 01:25:44;;;;;;;;;;;;;;;16.75;100.00;100390.41;4878273;29;20277;-75
2023/10/01 01:28:12;;;;;;;;;;;;;;;16.52;100.00;100386.63;4895747;29;20353;-75
2023/10/01 01:30:42;;;;;;;;;;;;;;;16.39;100.00;100383.56;4878816;29;20376;-75
2023/10/01 01:33:08;;;;;;;;;;;;;;;16.43;100.00;100382.28;4895689;29;19923;-75
2023/10/01 01:35:35;;;;;;;;;;;;;;;16.48;100.00;100377.31;4895294;29;19927;-75
2023/10/01 01:38:01;;;;;;;;;;;;;;;16.59;100.00;100374.38;4895099;29;20412;-75
2023/10/01 01:40:31;;;;;;;;;;;;;;;16.52;100.00;100375.97;4895532;29;19979;-75
2023/10/01 01:42:58;;;;;;;;;;;;;;;16.47;100.00;100370.28;4874906;29;19927;-74
2023/10/01 01:45:27;;;;;;;;;;;;;;;16.37;100.00;100374.94;4895274;29;19933;-75
2023/10/01 01:47:53;;;;;;;;;;;;;;;16.39;100.00;100367.59;4891616;29;20014;-75
2023/10/01 01:50:19;;;;;;;;;;;;;;;16.42;100.00;100367.28;4895417;29;20002;-76
2023/10/01 01:52:47;;;;;;;;;;;;;;;16.44;100.00;100375.09;4894789;29;20444;-76
2023/10/01 01:55:23;;;;;;;;;;;;;;;16.47;100.00;100375.63;4878455;29;20308;-76
2023/10/01 01:58:02;;;;;;;;;;;;;;;16.51;100.00;100379.63;4878284;29;19930;-76
2023/10/01 02:00:28;;;;;;;;;;;;;;;16.46;100.00;100376.63;4888507;29;20060;-76
2023/10/01 02:02:59;;;;;;;;;;;;;;;16.38;100.00;100377.41;4895646;29;19965;-76
2023/10/01 02:05:28;;;;;;;;;;;;;;;16.20;100.00;100374.00;4892611;29;19923;-76
2023/10/01 02:07:54;;;;;;;;;;;;;;;16.11;100.00;100374.97;4877888;29;19927;-76
2023/10/01 02:10:20;;;;;;;;;;;;;;;16.03;100.00;100372.25;4891857;29;19930;-76
2023/10/01 02:12:49;;;;;;;;;;;;;;;16.10;100.00;100373.28;4874280;29;20297;-76
2023/10/01 02:15:14;;;;;;;;;;;;;;;16.11;100.00;100380.28;4878397;29;20027;-75
2023/10/01 02:17:40;;;;;;;;;;;;;;;16.14;100.00;100379.94;4894920;29;19980;-76
2023/10/01 02:20:22;;;;;;;;;;;;;;;16.22;100.00;100364.03;4875224;29;19951;-76
2023/10/01 02:22:48;;;;;;;;;;;;;;;16.33;100.00;100357.56;4890479;29;20047;-75
2023/10/01 02:25:16;;;;;;;;;;;;;;;16.40;100.00;100358.59;4895075;29;19990;-75
2023/10/01 02:27:49;;;;;;;;;;;;;;;16.41;100.00;100360.28;4895076;29;20270;-76
2023/10/01 02:30:16;;;;;;;;;;;;;;;16.47;100.00;100370.28;4895217;29;20018;-75
2023/10/01 02:35:34;;;;;;;;;;;;;;;16.47;100.00;100370.28;4894896;29;19971;-75
2023/10/01 02:38:36;;;;;;;;;;;;;;;16.43;100.00;100362.78;4877484;29;19927;-76
2023/10/01 02:40:57;;;;;;;;;;;;;;;16.45;100.00;100361.63;4893186;29;19978;-76
2023/10/01 02:43:33;;;;;;;;;;;;;;;16.37;100.00;100375.72;4894981;29;19931;-76
2023/10/01 02:45:58;;;;;;;;;;;;;;;16.25;100.00;100376.19;4877717;29;19923;-75
2023/10/01 02:48:26;;;;;;;;;;;;;;;16.20;100.00;100375.84;4877516;29;19931;-75
2023/10/01 02:50:52;;;;;;;;;;;;;;;16.22;100.00;100365.84;4894338;29;19928;-75
2023/10/01 02:53:20;;;;;;;;;;;;;;;16.13;100.00;100372.16;4877327;29;19931;-75
2023/10/01 02:55:46;;;;;;;;;;;;;;;16.04;100.00;100362.44;4894376;29;19930;-74
2023/10/01 02:58:27;;;;;;;;;;;;;;;16.04;100.00;100362.44;4890444;29;19924;-75
2023/10/01 03:00:53;;;;;;;;;;;;;;;16.02;100.00;100364.44;4897004;29;19923;-75
2023/10/01 03:03:19;;;;;;;;;;;;;;;16.05;100.00;100364.09;4897466;29;20411;-76
2023/10/01 03:05:46;;;;;;;;;;;;;;;16.03;100.00;100360.75;4898005;29;20078;-76
2023/10/01 03:08:40;;;;;;;;;;;;;;;15.98;100.00;100370.06;4897722;29;19923;-76
2023/10/01 03:11:03;;;;;;;;;;;;;;;16.05;100.00;100364.94;4897682;29;20076;-75
2023/10/01 03:13:30;;;;;;;;;;;;;;;16.07;100.00;100370.13;4881415;29;19923;-76
2023/10/01 03:18:40;;;;;;;;;;;;;;;15.79;100.00;100370.25;4896566;29;20070;-76
2023/10/01 03:21:17;;;;;;;;;;;;;;;15.84;100.00;100373.31;4880256;29;20377;-77
2023/10/01 03:23:51;;;;;;;;;;;;;;;15.90;100.00;100377.97;4880791;29;19987;-75
2023/10/01 03:26:17;;;;;;;;;;;;;;;15.95;100.00;100370.38;4896907;29;19930;-75
2023/10/01 03:31:29;;;;;;;;;;;;;;;16.04;100.00;100373.91;4895189;29;19931;-75
2023/10/01 03:33:54;;;;;;;;;;;;;;;16.07;100.00;100370.13;4880479;29;20442;-76
2023/10/01 03:36:28;;;;;;;;;;;;;;;16.13;100.00;100372.16;4876903;29;19924;-75
2023/10/01 03:39:25;;;;;;;;;;;;;;;16.15;100.00;100370.13;4893314;29;19938;-74
2023/10/01 03:41:54;;;;;;;;;;;;;;;16.21;100.00;100377.50;4897141;29;19923;-75
2023/10/01 03:47:05;;;;;;;;;;;;;;;16.20;100.00;100373.19;4895542;29;21213;-76
2023/10/01 03:49:33;;;;;;;;;;;;;;;16.17;100.00;100374.31;4898120;29;19999;-74
2023/10/01 03:51:59;;;;;;;;;;;;;;;16.17;100.00;100373.47;4896866;29;19920;-75
2023/10/01 03:57:11;;;;;;;;;;;;;;;16.04;100.00;100376.56;4895687;29;19967;-75
2023/10/01 03:59:37;;;;;;;;;;;;;;;15.92;100.00;100373.34;4893263;29;19923;-74
2023/10/01 04:02:27;;;;;;;;;;;;;;;15.77;100.00;100376.75;4896391;29;20014;-75
2023/10/01 04:04:57;;;;;;;;;;;;;;;15.72;100.00;100374.56;4895131;29;19927;-76
2023/10/01 04:07:26;;;;;;;;;;;;;;;15.75;100.00;100374.22;4876407;29;19923;-75
2023/10/01 04:09:54;;;;;;;;;;;;;;;15.84;100.00;100389.28;4859651;29;20270;-75
2023/10/01 04:12:20;;;;;;;;;;;;;;;15.87;100.00;100388.13;4891822;29;20018;-75
2023/10/01 04:14:48;;;;;;;;;;;;;;;15.90;100.00;100388.63;4892580;29;20029;-76
2023/10/01 04:17:17;;;;;;;;;;;;;;;15.93;100.00;100395.47;4892895;29;19928;-75
2023/10/01 04:19:43;;;;;;;;;;;;;;;15.89;100.00;100391.47;4896177;29;19928;-75
2023/10/01 04:22:09;;;;;;;;;;;;;;;15.73;100.00;100400.16;4879532;29;19933;-76
2023/10/01 04:24:35;;;;;;;;;;;;;;;15.67;100.00;100400.78;4896176;29;20031;-74
2023/10/01 04:27:18;;;;;;;;;;;;;;;15.59;100.00;100400.72;4896126;29;19989;-74
2023/10/01 04:29:57;;;;;;;;;;;;;;;15.65;100.00;100402.78;4895723;29;19929;-75
2023/10/01 04:32:27;;;;;;;;;;;;;;;15.73;100.00;100408.13;4895295;29;19927;-75
2023/10/01 04:34:56;;;;;;;;;;;;;;;15.72;100.00;100417.13;4892346;29;20022;-75
2023/10/01 04:37:36;;;;;;;;;;;;;;;15.69;100.00;100412.09;4876264;29;20010;-75
2023/10/01 04:42:49;;;;;;;;;;;;;;;15.67;100.00;100415.94;4896164;29;19931;-76
2023/10/01 04:45:22;;;;;;;;;;;;;;;15.74;100.00;100415.13;4896273;29;19965;-74
2023/10/01 04:47:49;;;;;;;;;;;;;;;15.77;100.00;100425.50;4896268;29;19931;-75
2023/10/01 04:50:17;;;;;;;;;;;;;;;15.83;100.00;100424.88;4896268;29;19932;-76
2023/10/01 04:52:44;;;;;;;;;;;;;;;15.81;100.00;100432.16;4891872;29;19923;-76
2023/10/01 04:55:09;;;;;;;;;;;;;;;15.80;100.00;100430.47;4895581;29;19927;-76
2023/10/01 04:57:36;;;;;;;;;;;;;;;15.75;100.00;100427.47;4896066;29;20435;-75
2023/10/01 05:00:10;;;;;;;;;;;;;;;15.74;100.00;100423.13;4878474;29;20333;-75
2023/10/01 05:02:36;;;;;;;;;;;;;;;15.77;100.00;100428.16;4895909;29;19927;-74
2023/10/01 05:05:10;;;;;;;;;;;;;;;15.79;100.00;100428.81;4894662;29;19924;-75
2023/10/01 05:07:36;;;;;;;;;;;;;;;15.78;100.00;100440.47;4895687;29;19923;-75
2023/10/01 05:10:04;;;;;;;;;;;;;;;15.83;100.00;100443.50;4894308;29;20766;-75
2023/10/01 05:12:31;;;;;;;;;;;;;;;15.87;100.00;100442.19;4893331;29;19923;-75
2023/10/01 05:14:59;;;;;;;;;;;;;;;15.88;100.00;100443.88;4895228;29;19979;-75
2023/10/01 05:17:30;;;;;;;;;;;;;;;15.86;100.00;100440.50;4896002;29;19924;-75
2023/10/01 05:19:56;;;;;;;;;;;;;;;15.88;100.00;100443.88;4895601;29;19930;-76
2023/10/01 05:22:21;;;;;;;;;;;;;;;15.87;100.00;100446.66;4895672;29;19927;-76
2023/10/01 05:24:49;;;;;;;;;;;;;;;15.86;100.00;100443.16;4894172;29;20392;-75
2023/10/01 05:27:22;;;;;;;;;;;;;;;15.87;100.00;100446.66;4895253;29;19979;-76
2023/10/01 05:29:48;;;;;;;;;;;;;;;15.89;100.00;100450.88;4891073;29;19988;-74
2023/10/01 05:32:17;;;;;;;;;;;;;;;15.87;100.00;100444.84;4894838;29;19927;-75
2023/10/01 05:34:46;;;;;;;;;;;;;;;15.82;100.00;100439.16;4894947;29;19930;-76
2023/10/01 05:37:20;;;;;;;;;;;;;;;15.79;100.00;100450.09;4895171;29;19931;-73
2023/10/01 05:39:58;;;;;;;;;;;;;;;15.78;100.00;100453.78;4894874;29;19927;-76
2023/10/01 05:42:28;;;;;;;;;;;;;;;15.71;100.00;100452.72;4894705;29;19923;-76
2023/10/01 05:44:54;;;;;;;;;;;;;;;15.77;100.00;100457.41;4894889;29;19934;-76
2023/10/01 05:47:20;;;;;;;;;;;;;;;15.81;100.00;100458.78;4895354;29;19998;-75
2023/10/01 05:49:49;;;;;;;;;;;;;;;15.79;100.00;100457.25;4891260;29;20013;-75
2023/10/01 05:52:17;;;;;;;;;;;;;;;15.83;100.00;100456.81;4877911;29;19931;-75
2023/10/01 05:54:50;;;;;;;;;;;;;;;15.79;100.00;100460.75;4894605;29;19924;-75
2023/10/01 05:57:16;;;;;;;;;;;;;;;15.79;100.00;100465.22;4896173;29;20012;-75
2023/10/01 05:59:42;;;;;;;;;;;;;;;15.82;100.00;100468.44;4919038;23;20038;-79
2023/10/01 06:02:07;;;;;;;;;;;;;;;15.82;100.00;100470.25;4914291;29;20304;-78
2023/10/01 06:04:32;;;;;;;;;;;;;;;15.68;100.00;100468.97;4913855;29;20396;-76
2023/10/01 06:07:02;;;;;;;;;;;;;;;15.74;100.00;100479.00;4898312;29;19927;-79
2023/10/01 06:09:33;;;;;;;;;;;;;;;15.80;100.00;100489.03;4914499;29;19930;-78
2023/10/01 06:12:03;;;;;;;;;;;;;;;15.85;100.00;100497.38;4912119;29;19923;-79
2023/10/01 06:14:41;;;;;;;;;;;;;;;15.90;100.00;100488.97;4917918;29;20354;-78
2023/10/01 06:17:08;;;;;;;;;;;;;;;15.98;100.00;100497.00;4920218;29;19974;-79
2023/10/01 06:19:34;;;;;;;;;;;;;;;15.90;100.00;100497.75;4918992;29;20441;-79
2023/10/01 06:22:22;;;;;;;;;;;;;;;15.83;100.00;100504.72;4919567;29;19927;-79
2023/10/01 06:24:47;;;;;;;;;;;;;;;15.79;100.00;100500.66;4915878;29;19923;-80
2023/10/01 06:27:13;;;;;;;;;;;;;;;15.82;100.00;100492.38;4918052;29;19995;-81
2023/10/01 06:29:49;;;;;;;;;;;;;;;15.88;100.00;100497.09;4913777;29;19919;-81
2023/10/01 06:32:23;;;;;;;;;;;;;;;15.94;100.00;100501.81;4912755;29;19927;-85
2023/10/01 06:34:51;;;;;;;;;;;;;;;16.01;100.00;100502.03;4895605;29;19938;-81
2023/10/01 06:37:19;;;;;;;;;;;;;;;16.08;100.00;100499.59;4901165;29;19927;-82
2023/10/01 06:39:46;;;;;;;;;;;;;;;16.08;100.00;100496.91;4905528;29;20300;-81
2023/10/01 06:42:23;;;;;;;;;;;;;;;16.16;100.00;100499.63;4917798;29;19991;-81
2023/10/01 06:44:50;;;;;;;;;;;;;;;16.21;100.00;100500.00;4914827;29;19930;-82
2023/10/01 06:47:16;;;;;;;;;;;;;;;16.30;100.00;100507.06;4907886;29;19923;-81
2023/10/01 06:50:20;;;;;;;;;;;;;;;16.38;100.00;100512.41;4903013;29;19970;-81
2023/10/01 06:52:41;;;;;;;;;;;;;;;16.44;100.00;100519.78;4912220;29;20340;-81
2023/10/01 06:55:07;;;;;;;;;;;;;;;16.49;100.00;100512.19;4914930;29;19927;-82
2023/10/01 06:57:33;;;;;;;;;;;;;;;16.56;100.00;100523.84;4916869;29;19966;-81
2023/10/01 07:00:04;;;;;;;;;;;;;;;16.62;100.00;100523.25;4915054;29;20031;-81
2023/10/01 07:02:29;;;;;;;;;;;;;;;16.69;100.00;100521.63;4898212;29;20062;-82
2023/10/01 07:04:58;;;;;;;;;;;;;;;16.79;100.00;100525.00;4915878;29;20013;-80
2023/10/01 07:07:24;;;;;;;;;;;;;;;16.86;100.00;100527.88;4913376;29;20059;-79
2023/10/01 07:09:51;;;;;;;;;;;;;;;16.94;100.00;100532.44;4907020;29;20013;-79
2023/10/01 07:12:19;;;;;;;;;;;;;;;17.00;100.00;100537.13;4912340;29;19923;-78
2023/10/01 07:14:45;;;;;;;;;;;;;;;17.11;100.00;100534.16;4568322;29;10000143;-77
2023/10/01 07:17:15;;;;;;;;;;;;;;;17.18;100.00;100540.53;4909542;29;19934;-77
2023/10/01 07:19:41;;;;;;;;;;;;;;;17.24;100.00;100534.53;4907050;29;20411;-75
2023/10/01 07:22:07;;;;;;;;;;;;;;;17.31;100.00;100538.25;4908993;29;20365;-76
2023/10/01 07:24:33;;;;;;;;;;;;;;;17.34;100.00;100545.91;4907695;29;19934;-77
2023/10/01 07:27:06;;;;;;;;;;;;;;;17.41;100.00;100546.94;4905370;29;20427;-78
2023/10/01 07:29:36;;;;;;;;;;;;;;;17.46;100.00;100544.59;4904905;29;19939;-78
2023/10/01 07:32:08;;;;;;;;;;;;;;;17.53;100.00;100550.97;4912332;29;19970;-77
2023/10/01 07:34:35;;;;;;;;;;;;;;;17.62;100.00;100553.66;4906209;29;19923;-78
2023/10/01 07:37:01;;;;;;;;;;;;;;;17.70;100.00;100557.19;4910269;29;20371;-77
2023/10/01 07:39:34;;;;;;;;;;;;;;;17.80;100.00;100562.38;4913030;29;19986;-76
2023/10/01 07:42:04;;;;;;;;;;;;;;;17.87;100.00;100552.72;4909598;29;20010;-78
2023/10/01 07:44:29;;;;;;;;;;;;;;;17.93;100.00;100562.72;4909427;29;19923;-78
2023/10/01 07:46:55;;;;;;;;;;;;;;;17.99;100.00;100562.91;4912373;29;20046;-76
2023/10/01 07:49:21;;;;;;;;;;;;;;;18.07;100.00;100564.75;4908934;29;19926;-76
2023/10/01 07:51:48;;;;;;;;;;;;;;;18.13;100.00;100569.44;4910843;29;19927;-77
2023/10/01 07:54:22;;;;;;;;;;;;;;;18.13;100.00;100566.75;4911448;29;19933;-77
2023/10/01 07:56:49;;;;;;;;;;;;;;;18.23;100.00;100572.75;4894882;29;19934;-78
2023/10/01 07:59:33;;;;;;;;;;;;;;;18.29;100.00;100572.09;4912207;29;19938;-79
2023/10/01 08:04:57;;;;;;;;;;;;;;;18.34;100.00;100566.25;4911825;29;19931;-78
2023/10/01 08:07:30;;;;;;;;;;;;;;;18.41;100.00;100573.44;4909286;29;20348;-80
2023/10/01 08:09:59;;;;;;;;;;;;;;;18.51;100.00;100572.41;4909944;29;20625;-77
2023/10/01 08:17:54;;;;;;;;;;;;;;;18.64;100.00;100584.28;4908191;29;20021;-80
2023/10/01 08:20:22;;;;;;;;;;;;;;;18.69;100.00;100581.09;4906013;29;20685;-80
2023/10/01 08:25:42;;;;;;;;;;;;;;;18.80;100.00;100584.25;4909071;29;20411;-78
2023/10/01 08:30:38;;;;;;;;;;;;;;;18.95;100.00;100589.72;4911309;29;19924;-76
2023/10/01 08:33:21;;;;;;;;;;;;;;;19.04;100.00;100577.97;4229238;29;10000713;-77
2023/10/01 08:36:12;;;;;;;;;;;;;;;19.11;100.00;100576.28;4914008;29;19955;-76
2023/10/01 08:38:47;;;;;;;;;;;;;;;19.19;100.00;100578.94;4913195;29;20392;-74
2023/10/01 08:41:29;;;;;;;;;;;;;;;19.28;100.00;100581.56;4894479;29;19949;-76
2023/10/01 08:44:09;;;;;;;;;;;;;;;19.37;100.00;100591.25;4910959;29;19934;-75
2023/10/01 08:46:39;;;;;;;;;;;;;;;19.43;100.00;100595.91;4912856;29;20419;-76
2023/10/01 08:49:22;;;;;;;;;;;;;;;19.49;100.00;100593.41;4910131;29;19967;-75
2023/10/01 08:51:48;;;;;;;;;;;;;;;19.56;100.00;100596.19;4912807;29;19930;-76
2023/10/01 08:54:17;;;;;;;;;;;;;;;19.62;100.00;100598.16;4914485;29;19923;-76
2023/10/01 08:56:44;;;;;;;;;;;;;;;19.70;100.00;100598.13;4911962;29;19923;-76
2023/10/01 08:59:23;;;;;;;;;;;;;;;19.77;100.00;100590.22;4913179;29;20299;-76
2023/10/01 09:01:52;;;;;;;;;;;;;;;19.83;100.00;100593.03;4896892;29;19930;-75
2023/10/01 09:05:07;;;;;;;;;;;;;;;19.89;100.00;100597.69;4914223;29;19930;-74
2023/10/01 09:07:17;;;;;;;;;;;;;;;19.97;100.00;100578.84;4901468;29;19974;-76
2023/10/01 09:09:53;;;;;;;;;;;;;;;20.04;100.00;100581.66;4913594;29;20340;-76
2023/10/01 09:12:19;;;;;;;;;;;;;;;20.12;100.00;100591.47;4913800;29;19929;-75
2023/10/01 09:14:46;;;;;;;;;;;;;;;20.17;100.00;100586.41;4913654;29;19941;-76
2023/10/01 09:17:24;;;;;;;;;;;;;;;20.21;100.00;100585.88;4913975;29;19923;-75
2023/10/01 09:19:51;;;;;;;;;;;;;;;20.29;100.00;100587.66;4911829;29;20264;-76
2023/10/01 09:22:22;;;;;;;;;;;;;;;20.36;100.00;100589.47;4913405;29;19927;-75
2023/10/01 09:25:01;;;;;;;;;;;;;;;20.43;100.00;100590.41;4911221;29;19930;-75
2023/10/01 09:27:30;;;;;;;;;;;;;;;20.49;100.00;100588.88;4910392;29;19976;-76
2023/10/01 09:30:27;;;;;;;;;;;;;;;20.55;100.00;100582.78;4909480;29;20303;-76
2023/10/01 09:32:54;;;;;;;;;;;;;;;20.61;100.00;100587.41;4911632;29;20292;-76
2023/10/01 09:35:30;;;;;;;;;;;;;;;20.68;100.00;100588.31;4913603;29;19930;-76
2023/10/01 09:38:18;;;;;;;;;;;;;;;20.73;100.00;100588.63;4913345;29;19930;-77
2023/10/01 09:40:47;;;;;;;;;;;;;;;20.78;100.00;100583.53;4915078;29;19966;-76
2023/10/01 09:43:19;;;;;;;;;;;;;;;20.84;100.00;100588.16;4911406;29;19978;-75
2023/10/01 09:45:49;;;;;;;;;;;;;;;20.88;100.00;100588.63;4892454;29;19937;-73
2023/10/01 09:48:37;;;;;;;;;;;;;;;20.93;100.00;100586.22;4909061;29;20352;-74
2023/10/01 09:51:08;;;;;;;;;;;;;;;21.01;100.00;100590.66;4884070;29;19962;-75
2023/10/01 09:53:43;;;;;;;;;;;;;;;21.07;100.00;100589.94;4902464;29;19931;-74
2023/10/01 09:56:13;;;;;;;;;;;;;;;21.14;100.00;100588.16;4916773;29;19933;-76
2023/10/01 09:58:46;;;;;;;;;;;;;;;21.20;100.00;100587.47;4910490;29;20002;-76
2023/10/01 10:01:12;;;;;;;;;;;;;;;21.24;100.00;100578.84;4912639;29;20293;-76
2023/10/01 10:03:38;;;;;;;;;;;;;;;21.30;100.00;100588.00;4912821;29;20273;-74
2023/10/01 10:06:06;;;;;;;;;;;;;;;21.35;100.00;100579.38;4913798;29;19941;-77
2023/10/01 10:08:35;;;;;;;;;;;;;;;21.40;100.00;100585.00;4909207;29;20009;-75
2023/10/01 10:11:02;;;;;;;;;;;;;;;21.43;100.00;100585.47;4906130;29;19927;-75
2023/10/01 10:13:48;;;;;;;;;;;;;;;21.47;100.00;100578.72;4909353;29;19966;-77
2023/10/01 10:16:32;;;;;;;;;;;;;;;21.52;100.00;100580.81;4913299;29;20265;-77
2023/10/01 10:19:05;;;;;;;;;;;;;;;21.54;100.00;100574.25;4910502;29;20383;-77
2023/10/01 10:21:49;;;;;;;;;;;;;;;21.58;100.00;100575.53;4913237;29;19923;-77
2023/10/01 10:24:21;;;;;;;;;;;;;;;21.64;100.00;100568.56;4907318;29;19973;-77
2023/10/01 10:27:03;;;;;;;;;;;;;;;21.69;100.00;100576.03;4911371;29;19923;-77
2023/10/01 10:29:46;;;;;;;;;;;;;;;21.74;100.00;100570.94;4895776;29;19930;-77
2023/10/01 10:32:13;;;;;;;;;;;;;;;21.81;100.00;100567.31;4913210;29;19923;-77
2023/10/01 10:34:48;;;;;;;;;;;;;;;21.84;100.00;100563.41;4908446;29;19934;-77
2023/10/01 10:37:31;;;;;;;;;;;;;;;21.87;100.00;100563.00;4913024;29;19931;-76
2023/10/01 10:40:44;;;;;;;;;;;;;;;21.91;100.00;100564.31;4908469;29;19930;-75
2023/10/01 10:42:46;;;;;;;;;;;;;;;21.97;100.00;100559.00;4902870;29;19927;-75
2023/10/01 10:45:19;;;;;;;;;;;;;;;22.05;100.00;100560.75;4906538;29;20292;-75
2023/10/01 10:48:03;;;;;;;;;;;;;;;22.10;100.00;100568.22;4912534;29;19939;-75
2023/10/01 10:51:09;;;;;;;;;;;;;;;22.15;100.00;100560.44;4905020;29;19926;-81
2023/10/01 10:53:37;;;;;;;;;;;;;;;22.21;100.00;100555.09;4835122;29;19928;-81
2023/10/01 10:56:05;;;;;;;;;;;;;;;22.28;100.00;100555.16;4836702;29;19977;-81
2023/10/01 10:58:39;;;;;;;;;;;;;;;22.34;100.00;100555.22;4822466;29;19951;-81
2023/10/01 11:01:22;;;;;;;;;;;;;;;22.41;100.00;100549.88;4820735;29;19932;-82
2023/10/01 11:03:54;;;;;;;;;;;;;;;22.52;100.00;100556.56;4834237;29;19925;-82
2023/10/01 11:06:25;;;;;;;;;;;;;;;22.58;100.00;100547.72;4836850;29;19977;-81
2023/10/01 11:08:52;;;;;;;;;;;;;;;22.63;100.00;100548.78;4833195;29;19947;-81
2023/10/01 11:11:21;;;;;;;;;;;;;;;22.70;100.00;100548.84;4837064;29;19983;-82
2023/10/01 11:13:47;;;;;;;;;;;;;;;22.78;100.00;100541.50;4820719;29;19931;-80
2023/10/01 11:16:15;;;;;;;;;;;;;;;22.88;100.00;100543.81;4836717;29;20390;-81
2023/10/01 11:18:48;;;;;;;;;;;;;;;23.02;100.00;100537.47;4836465;29;20390;-81
2023/10/01 11:21:24;;;;;;;;;;;;;;;23.16;100.00;100539.19;4822927;29;20019;-80
2023/10/01 11:23:53;;;;;;;;;;;;;;;23.28;100.00;100536.75;4843718;29;20010;-81
2023/10/01 11:26:26;;;;;;;;;;;;;;;23.41;100.00;100541.34;4898451;29;19923;-81
2023/10/01 11:29:01;;;;;;;;;;;;;;;23.55;100.00;100532.31;4915934;29;19923;-83
2023/10/01 11:31:32;;;;;;;;;;;;;;;23.69;100.00;100534.00;4914165;29;20328;-77
2023/10/01 11:34:06;;;;;;;;;;;;;;;23.84;100.00;100526.56;4916934;29;20309;-76
2023/10/01 11:36:38;;;;;;;;;;;;;;;23.97;100.00;100518.50;4915122;29;20269;-77
2023/10/01 11:39:04;;;;;;;;;;;;;;;24.08;100.00;100512.50;4913820;29;19927;-77
2023/10/01 11:41:40;;;;;;;;;;;;;;;24.20;100.00;100517.31;4915024;29;19930;-77
2023/10/01 11:44:06;;;;;;;;;;;;;;;24.33;100.00;100510.00;4914228;29;19955;-78
2023/10/01 11:46:34;;;;;;;;;;;;;;;24.47;100.00;100505.44;4916592;29;20317;-77
2023/10/01 11:49:06;;;;;;;;;;;;;;;24.59;100.00;100502.91;4915797;29;19919;-78
2023/10/01 11:51:32;;;;;;;;;;;;;;;24.65;100.00;100500.22;4916261;29;20333;-78
2023/10/01 11:53:58;;;;;;;;;;;;;;;24.73;100.00;100494.59;4916310;29;20332;-79
2023/10/01 11:56:32;;;;;;;;;;;;;;;24.88;100.00;100489.78;4915313;29;20392;-77
2023/10/01 11:58:59;;;;;;;;;;;;;;;25.04;100.00;100490.34;4912908;29;19923;-77
2023/10/01 12:01:38;;;;;;;;;;;;;;;25.13;100.00;100489.91;4880290;29;20034;-78
2023/10/01 12:04:06;;;;;;;;;;;;;;;25.28;100.00;100486.91;4914490;29;19927;-77
2023/10/01 12:06:34;;;;;;;;;;;;;;;25.38;100.00;100481.88;4913025;29;19990;-76
2023/10/01 12:09:00;;;;;;;;;;;;;;;25.47;100.00;100475.16;4916968;29;19923;-76
2023/10/01 12:11:28;;;;;;;;;;;;;;;25.60;100.00;100472.41;4916081;29;19923;-76
2023/10/01 12:14:06;;;;;;;;;;;;;;;25.72;100.00;100471.72;4880673;29;20001;-76
2023/10/01 12:16:33;;;;;;;;;;;;;;;25.79;100.00;100475.19;4912904;29;20135;-76
2023/10/01 12:19:22;;;;;;;;;;;;;;;25.92;100.00;100469.69;4913907;29;19923;-76
2023/10/01 12:21:47;;;;;;;;;;;;;;;26.04;100.00;100465.19;4911705;29;19923;-76
2023/10/01 12:24:13;;;;;;;;;;;;;;;26.20;100.00;100470.06;4914291;29;20017;-75
2023/10/01 12:26:39;;;;;;;;;;;;;;;26.27;100.00;100462.72;4912064;29;19927;-76
2023/10/01 12:29:12;;;;;;;;;;;;;;;26.32;100.00;100462.91;4898817;29;19923;-78
2023/10/01 12:31:40;;;;;;;;;;;;;;;26.42;100.00;100457.78;4918287;29;19923;-78
2023/10/01 12:34:06;;;;;;;;;;;;;;;26.53;100.00;100468.91;4916076;29;20473;-79
2023/10/01 12:36:32;;;;;;;;;;;;;;;26.58;100.00;100460.94;4899438;29;19939;-80
2023/10/01 12:39:32;;;;;;;;;;;;;;;26.57;100.00;100451.19;4913823;29;19926;-80
2023/10/01 12:44:25;;;;;;;;;;;;;;;26.71;100.00;100444.56;4913103;29;19923;-76
2023/10/01 12:46:54;;;;;;;;;;;;;;;26.73;100.00;100442.47;4915798;29;20219;-78
2023/10/01 12:49:20;;;;;;;;;;;;;;;26.70;100.00;100449.16;4913897;29;19975;-76
2023/10/01 12:51:53;;;;;;;;;;;;;;;26.75;100.00;100443.88;4915799;29;19947;-78
2023/10/01 12:54:19;;;;;;;;;;;;;;;26.84;100.00;100444.41;4915009;29;20058;-76
2023/10/01 12:57:02;;;;;;;;;;;;;;;26.92;100.00;100446.81;4914927;29;20018;-79
2023/10/01 12:59:41;;;;;;;;;;;;;;;26.94;100.00;100444.72;4911885;29;20292;-79
2023/10/01 13:02:28;;;;;;;;;;;;;;;27.07;100.00;100439.13;4908852;29;19952;-80
2023/10/01 13:07:42;;;;;;;;;;;;;;;27.43;100.00;100432.78;4913411;29;19923;-78
2023/10/01 13:10:08;;;;;;;;;;;;;;;27.58;100.00;100429.66;4911853;29;20322;-77
2023/10/01 13:12:39;;;;;;;;;;;;;;;27.67;100.00;100422.84;4912599;29;20018;-78
2023/10/01 13:15:16;;;;;;;;;;;;;;;27.74;100.00;100422.75;4913834;29;20382;-78
2023/10/01 13:17:45;;;;;;;;;;;;;;;27.84;100.00;100418.41;4913760;29;19923;-78
2023/10/01 13:20:25;;;;;;;;;;;;;;;27.91;100.00;100410.97;4912727;29;19949;-76